sensor_id;sensor_type;location;lat;lon;timestamp;temperature;humidity
27439;DHT22;14887;51.252;7.470;2023-01-19T00:00:07;-1.10;99.90
27439;DHT22;14887;51.252;7.470;2023-01-19T00:02:35;-1.10;99.90
27439;DHT22;14887;51.252;7.470;2023-01-19T00:05:01;-1.00;99.90
27439;DHT22;14887;51.252;7.470;2023-01-19T00:07:29;-1.10;99.90
27439;DHT22;14887;51.252;7.470;2023-01-19T00:09:54;-1.10;99.90
27439;DHT22;14887;51.252;7.470;2023-01-19T00:12:20;-1.10;99.90
27439;DHT22;14887;51.252;7.470;2023-01-19T00:14:45;-1.20;99.90
27439;DHT22;14887;51.252;7.470;2023-01-19T00:17:11;-1.20;99.90
27439;DHT22;14887;51.252;7.470;2023-01-19T00:19:36;-1.20;99.90
27439;DHT22;14887;51.252;7.470;2023-01-19T00:22:02;-1.20;99.90
27439;DHT22;14887;51.252;7.470;2023-01-19T00:24:30;-1.20;99.90
27439;DHT22;14887;51.252;7.470;2023-01-19T00:26:56;-1.10;99.90
27439;DHT22;14887;51.252;7.470;2023-01-19T00:29:21;-1.10;99.90
27439;DHT22;14887;51.252;7.470;2023-01-19T00:31:48;-1.10;99.90
27439;DHT22;14887;51.252;7.470;2023-01-19T00:34:14;-1.10;99.90
27439;DHT22;14887;51.252;7.470;2023-01-19T00:36:40;-1.10;99.90
27439;DHT22;14887;51.252;7.470;2023-01-19T00:39:06;-1.10;99.90
27439;DHT22;14887;51.252;7.470;2023-01-19T00:41:32;-1.10;99.90
27439;DHT22;14887;51.252;7.470;2023-01-19T00:44:16;-1.10;99.90
27439;DHT22;14887;51.252;7.470;2023-01-19T00:46:41;-1.00;99.90
27439;DHT22;14887;51.252;7.470;2023-01-19T00:49:07;-1.00;99.90
27439;DHT22;14887;51.252;7.470;2023-01-19T00:51:32;-1.00;99.90
27439;DHT22;14887;51.252;7.470;2023-01-19T00:53:58;-1.00;99.90
27439;DHT22;14887;51.252;7.470;2023-01-19T00:56:30;-1.00;99.90
27439;DHT22;14887;51.252;7.470;2023-01-19T00:58:55;-1.00;99.90
27439;DHT22;14887;51.252;7.470;2023-01-19T01:01:21;-1.00;99.90
27439;DHT22;14887;51.252;7.470;2023-01-19T01:03:46;-1.00;99.90
27439;DHT22;14887;51.252;7.470;2023-01-19T01:06:12;-1.00;99.90
27439;DHT22;14887;51.252;7.470;2023-01-19T01:08:38;-1.00;99.90
27439;DHT22;14887;51.252;7.470;2023-01-19T01:11:03;-0.90;99.90
27439;DHT22;14887;51.252;7.470;2023-01-19T01:13:29;-0.90;99.90
27439;DHT22;14887;51.252;7.470;2023-01-19T01:15:56;-1.00;99.90
27439;DHT22;14887;51.252;7.470;2023-01-19T01:18:23;-1.00;99.90
27439;DHT22;14887;51.252;7.470;2023-01-19T01:20:49;-1.00;99.90
27439;DHT22;14887;51.252;7.470;2023-01-19T01:23:15;-1.00;99.90
27439;DHT22;14887;51.252;7.470;2023-01-19T01:25:47;-1.00;99.90
27439;DHT22;14887;51.252;7.470;2023-01-19T01:28:13;-1.00;99.90
27439;DHT22;14887;51.252;7.470;2023-01-19T01:30:38;-0.90;99.90
27439;DHT22;14887;51.252;7.470;2023-01-19T01:33:06;-1.00;99.90
27439;DHT22;14887;51.252;7.470;2023-01-19T01:35:32;-1.00;99.90
27439;DHT22;14887;51.252;7.470;2023-01-19T01:37:59;-1.00;99.90
27439;DHT22;14887;51.252;7.470;2023-01-19T01:40:25;-1.00;99.90
27439;DHT22;14887;51.252;7.470;2023-01-19T01:42:51;-1.00;99.90
27439;DHT22;14887;51.252;7.470;2023-01-19T01:45:36;-1.00;99.90
27439;DHT22;14887;51.252;7.470;2023-01-19T01:48:22;-1.00;99.90
27439;DHT22;14887;51.252;7.470;2023-01-19T01:50:54;-1.00;99.90
27439;DHT22;14887;51.252;7.470;2023-01-19T01:53:41;-1.00;99.90
27439;DHT22;14887;51.252;7.470;2023-01-19T01:56:11;-1.00;99.90
27439;DHT22;14887;51.252;7.470;2023-01-19T01:58:38;-1.00;99.90
27439;DHT22;14887;51.252;7.470;2023-01-19T02:01:04;-1.00;99.90
27439;DHT22;14887;51.252;7.470;2023-01-19T02:03:50;-1.00;99.90
27439;DHT22;14887;51.252;7.470;2023-01-19T02:06:16;-1.00;99.90
27439;DHT22;14887;51.252;7.470;2023-01-19T02:11:27;-1.00;99.90
27439;DHT22;14887;51.252;7.470;2023-01-19T02:14:11;-1.00;99.90
27439;DHT22;14887;51.252;7.470;2023-01-19T02:16:37;-1.00;99.90
27439;DHT22;14887;51.252;7.470;2023-01-19T02:19:04;-1.00;99.90
27439;DHT22;14887;51.252;7.470;2023-01-19T02:21:53;-0.90;99.90
27439;DHT22;14887;51.252;7.470;2023-01-19T02:24:22;-1.00;99.90
27439;DHT22;14887;51.252;7.470;2023-01-19T02:26:49;-1.00;99.90
27439;DHT22;14887;51.252;7.470;2023-01-19T02:29:17;-1.00;99.90
27439;DHT22;14887;51.252;7.470;2023-01-19T02:31:44;-0.90;99.90
27439;DHT22;14887;51.252;7.470;2023-01-19T02:34:13;-1.00;99.90
27439;DHT22;14887;51.252;7.470;2023-01-19T02:39:08;-1.00;99.90
27439;DHT22;14887;51.252;7.470;2023-01-19T02:41:40;-0.90;99.90
27439;DHT22;14887;51.252;7.470;2023-01-19T02:44:08;-0.90;99.90
27439;DHT22;14887;51.252;7.470;2023-01-19T02:46:34;-0.90;99.90
27439;DHT22;14887;51.252;7.470;2023-01-19T02:49:00;-0.90;99.90
27439;DHT22;14887;51.252;7.470;2023-01-19T02:51:26;-0.90;99.90
27439;DHT22;14887;51.252;7.470;2023-01-19T02:57:13;-0.90;99.90
27439;DHT22;14887;51.252;7.470;2023-01-19T03:05:37;-0.90;99.90
27439;DHT22;14887;51.252;7.470;2023-01-19T03:08:13;-0.90;99.90
27439;DHT22;14887;51.252;7.470;2023-01-19T03:11:02;-0.90;99.90
27439;DHT22;14887;51.252;7.470;2023-01-19T03:13:41;-0.90;99.90
27439;DHT22;14887;51.252;7.470;2023-01-19T03:19:00;-0.90;99.90
27439;DHT22;14887;51.252;7.470;2023-01-19T03:21:27;-0.80;99.90
27439;DHT22;14887;51.252;7.470;2023-01-19T03:23:57;-0.90;99.90
27439;DHT22;14887;51.252;7.470;2023-01-19T03:26:26;-0.90;99.90
27439;DHT22;14887;51.252;7.470;2023-01-19T03:28:55;-0.90;99.90
27439;DHT22;14887;51.252;7.470;2023-01-19T03:31:25;-0.90;99.90
27439;DHT22;14887;51.252;7.470;2023-01-19T03:34:02;-0.80;99.90
27439;DHT22;14887;51.252;7.470;2023-01-19T03:39:05;-0.80;99.90
27439;DHT22;14887;51.252;7.470;2023-01-19T03:41:33;-0.80;99.90
27439;DHT22;14887;51.252;7.470;2023-01-19T03:44:01;-0.80;99.90
27439;DHT22;14887;51.252;7.470;2023-01-19T03:46:27;-0.80;99.90
27439;DHT22;14887;51.252;7.470;2023-01-19T03:48:54;-0.80;99.90
27439;DHT22;14887;51.252;7.470;2023-01-19T03:51:21;-0.80;99.90
27439;DHT22;14887;51.252;7.470;2023-01-19T03:53:46;-0.80;99.90
27439;DHT22;14887;51.252;7.470;2023-01-19T03:56:20;-0.80;99.90
27439;DHT22;14887;51.252;7.470;2023-01-19T03:58:46;-0.80;99.90
27439;DHT22;14887;51.252;7.470;2023-01-19T04:01:12;-0.70;99.90
27439;DHT22;14887;51.252;7.470;2023-01-19T04:03:39;-0.70;99.90
27439;DHT22;14887;51.252;7.470;2023-01-19T04:06:06;-0.70;99.90
27439;DHT22;14887;51.252;7.470;2023-01-19T04:08:31;-0.80;99.90
27439;DHT22;14887;51.252;7.470;2023-01-19T04:10:57;-0.80;99.90
27439;DHT22;14887;51.252;7.470;2023-01-19T04:13:23;-0.70;99.90
27439;DHT22;14887;51.252;7.470;2023-01-19T04:15:48;-0.70;99.90
27439;DHT22;14887;51.252;7.470;2023-01-19T04:18:14;-0.70;99.90
27439;DHT22;14887;51.252;7.470;2023-01-19T04:20:39;-0.70;99.90
27439;DHT22;14887;51.252;7.470;2023-01-19T04:23:05;-0.70;99.90
27439;DHT22;14887;51.252;7.470;2023-01-19T04:25:30;-0.70;99.90
27439;DHT22;14887;51.252;7.470;2023-01-19T04:27:56;-0.70;99.90
27439;DHT22;14887;51.252;7.470;2023-01-19T04:30:25;-0.70;99.90
27439;DHT22;14887;51.252;7.470;2023-01-19T04:32:52;-0.60;99.90
27439;DHT22;14887;51.252;7.470;2023-01-19T04:35:19;-0.60;99.90
27439;DHT22;14887;51.252;7.470;2023-01-19T04:37:46;-0.60;99.90
27439;DHT22;14887;51.252;7.470;2023-01-19T04:40:12;-0.60;99.90
27439;DHT22;14887;51.252;7.470;2023-01-19T04:42:37;-0.60;99.90
27439;DHT22;14887;51.252;7.470;2023-01-19T04:45:03;-0.60;99.90
27439;DHT22;14887;51.252;7.470;2023-01-19T04:47:29;-0.60;99.90
27439;DHT22;14887;51.252;7.470;2023-01-19T04:49:55;-0.50;99.90
27439;DHT22;14887;51.252;7.470;2023-01-19T04:52:20;-0.50;99.90
27439;DHT22;14887;51.252;7.470;2023-01-19T04:54:46;-0.50;99.90
27439;DHT22;14887;51.252;7.470;2023-01-19T04:57:12;-0.60;99.90
27439;DHT22;14887;51.252;7.470;2023-01-19T04:59:37;-0.60;99.90
27439;DHT22;14887;51.252;7.470;2023-01-19T05:02:03;-0.60;99.90
27439;DHT22;14887;51.252;7.470;2023-01-19T05:04:28;-0.60;99.90
27439;DHT22;14887;51.252;7.470;2023-01-19T05:06:54;-0.60;99.90
27439;DHT22;14887;51.252;7.470;2023-01-19T05:09:20;-0.70;99.90
27439;DHT22;14887;51.252;7.470;2023-01-19T05:11:46;-0.70;99.90
27439;DHT22;14887;51.252;7.470;2023-01-19T05:14:11;-0.80;99.90
27439;DHT22;14887;51.252;7.470;2023-01-19T05:16:37;-0.80;99.90
27439;DHT22;14887;51.252;7.470;2023-01-19T05:19:02;-0.80;99.90
27439;DHT22;14887;51.252;7.470;2023-01-19T05:21:28;-0.90;99.90
27439;DHT22;14887;51.252;7.470;2023-01-19T05:23:54;-0.90;99.90
27439;DHT22;14887;51.252;7.470;2023-01-19T05:26:19;-1.00;99.90
27439;DHT22;14887;51.252;7.470;2023-01-19T05:28:45;-1.00;99.90
27439;DHT22;14887;51.252;7.470;2023-01-19T05:31:10;-1.00;99.90
27439;DHT22;14887;51.252;7.470;2023-01-19T05:33:36;-1.00;99.90
27439;DHT22;14887;51.252;7.470;2023-01-19T05:36:01;-1.00;99.90
27439;DHT22;14887;51.252;7.470;2023-01-19T05:38:28;-1.00;99.90
27439;DHT22;14887;51.252;7.470;2023-01-19T05:40:57;-1.00;99.90
27439;DHT22;14887;51.252;7.470;2023-01-19T05:43:23;-1.00;99.90
27439;DHT22;14887;51.252;7.470;2023-01-19T05:45:50;-1.00;99.90
27439;DHT22;14887;51.252;7.470;2023-01-19T05:48:15;-1.00;99.90
27439;DHT22;14887;51.252;7.470;2023-01-19T05:50:41;-1.00;99.90
27439;DHT22;14887;51.252;7.470;2023-01-19T05:53:07;-1.00;99.90
27439;DHT22;14887;51.252;7.470;2023-01-19T05:55:32;-1.00;99.90
27439;DHT22;14887;51.252;7.470;2023-01-19T05:57:58;-1.00;99.90
27439;DHT22;14887;51.252;7.470;2023-01-19T06:00:23;-1.00;99.90
27439;DHT22;14887;51.252;7.470;2023-01-19T06:02:50;-1.00;99.90
27439;DHT22;14887;51.252;7.470;2023-01-19T06:05:15;-1.00;99.90
27439;DHT22;14887;51.252;7.470;2023-01-19T06:07:41;-1.00;99.90
27439;DHT22;14887;51.252;7.470;2023-01-19T06:10:07;-1.00;99.90
27439;DHT22;14887;51.252;7.470;2023-01-19T06:12:33;-1.00;99.90
27439;DHT22;14887;51.252;7.470;2023-01-19T06:14:59;-1.00;99.90
27439;DHT22;14887;51.252;7.470;2023-01-19T06:17:25;-1.00;99.90
27439;DHT22;14887;51.252;7.470;2023-01-19T06:19:50;-1.00;99.90
27439;DHT22;14887;51.252;7.470;2023-01-19T06:22:16;-1.00;99.90
27439;DHT22;14887;51.252;7.470;2023-01-19T06:24:41;-1.00;99.90
27439;DHT22;14887;51.252;7.470;2023-01-19T06:27:07;-1.00;99.90
27439;DHT22;14887;51.252;7.470;2023-01-19T06:29:32;-1.00;99.90
27439;DHT22;14887;51.252;7.470;2023-01-19T06:31:58;-1.00;99.90
27439;DHT22;14887;51.252;7.470;2023-01-19T06:34:23;-1.00;99.90
27439;DHT22;14887;51.252;7.470;2023-01-19T06:36:54;-1.00;99.90
27439;DHT22;14887;51.252;7.470;2023-01-19T06:39:20;-1.00;99.90
27439;DHT22;14887;51.252;7.470;2023-01-19T06:41:45;-1.00;99.90
27439;DHT22;14887;51.252;7.470;2023-01-19T06:44:11;-1.00;99.90
27439;DHT22;14887;51.252;7.470;2023-01-19T06:46:36;-1.00;99.90
27439;DHT22;14887;51.252;7.470;2023-01-19T06:49:02;-1.00;99.90
27439;DHT22;14887;51.252;7.470;2023-01-19T06:51:28;-1.00;99.90
27439;DHT22;14887;51.252;7.470;2023-01-19T06:53:53;-1.00;99.90
27439;DHT22;14887;51.252;7.470;2023-01-19T06:56:19;-1.00;99.90
27439;DHT22;14887;51.252;7.470;2023-01-19T06:58:46;-1.00;99.90
27439;DHT22;14887;51.252;7.470;2023-01-19T07:01:12;-1.00;99.90
27439;DHT22;14887;51.252;7.470;2023-01-19T07:03:37;-1.00;99.90
27439;DHT22;14887;51.252;7.470;2023-01-19T07:06:03;-1.00;99.90
27439;DHT22;14887;51.252;7.470;2023-01-19T07:08:35;-1.00;99.90
27439;DHT22;14887;51.252;7.470;2023-01-19T07:11:02;-1.00;99.90
27439;DHT22;14887;51.252;7.470;2023-01-19T07:13:35;-1.00;99.90
27439;DHT22;14887;51.252;7.470;2023-01-19T07:16:09;-1.00;99.90
27439;DHT22;14887;51.252;7.470;2023-01-19T07:18:36;-1.00;99.90
27439;DHT22;14887;51.252;7.470;2023-01-19T07:21:02;-1.00;99.90
27439;DHT22;14887;51.252;7.470;2023-01-19T07:23:28;-1.00;99.90
27439;DHT22;14887;51.252;7.470;2023-01-19T07:25:56;-1.00;99.90
27439;DHT22;14887;51.252;7.470;2023-01-19T07:28:22;-1.00;99.90
27439;DHT22;14887;51.252;7.470;2023-01-19T07:30:51;-1.00;99.90
27439;DHT22;14887;51.252;7.470;2023-01-19T07:33:17;-1.00;99.90
27439;DHT22;14887;51.252;7.470;2023-01-19T07:35:47;-1.00;99.90
27439;DHT22;14887;51.252;7.470;2023-01-19T07:38:13;-0.90;99.90
27439;DHT22;14887;51.252;7.470;2023-01-19T07:40:39;-0.90;99.90
27439;DHT22;14887;51.252;7.470;2023-01-19T07:43:04;-0.90;99.90
27439;DHT22;14887;51.252;7.470;2023-01-19T07:45:30;-0.90;99.90
27439;DHT22;14887;51.252;7.470;2023-01-19T07:47:55;-0.90;99.90
27439;DHT22;14887;51.252;7.470;2023-01-19T07:50:21;-0.90;99.90
27439;DHT22;14887;51.252;7.470;2023-01-19T07:52:50;-0.80;99.90
27439;DHT22;14887;51.252;7.470;2023-01-19T07:55:20;-0.80;99.90
27439;DHT22;14887;51.252;7.470;2023-01-19T07:57:51;-0.80;99.90
27439;DHT22;14887;51.252;7.470;2023-01-19T08:00:18;-0.80;99.90
27439;DHT22;14887;51.252;7.470;2023-01-19T08:02:47;-0.80;99.90
27439;DHT22;14887;51.252;7.470;2023-01-19T08:05:16;-0.70;99.90
27439;DHT22;14887;51.252;7.470;2023-01-19T08:07:41;-0.70;99.90
27439;DHT22;14887;51.252;7.470;2023-01-19T08:10:08;-0.70;99.90
27439;DHT22;14887;51.252;7.470;2023-01-19T08:12:33;-0.60;99.90
27439;DHT22;14887;51.252;7.470;2023-01-19T08:14:59;-0.60;99.90
27439;DHT22;14887;51.252;7.470;2023-01-19T08:17:24;-0.60;99.90
27439;DHT22;14887;51.252;7.470;2023-01-19T08:19:50;-0.60;99.90
27439;DHT22;14887;51.252;7.470;2023-01-19T08:22:15;-0.60;99.90
27439;DHT22;14887;51.252;7.470;2023-01-19T08:24:41;-0.50;99.90
27439;DHT22;14887;51.252;7.470;2023-01-19T08:27:07;-0.50;99.90
27439;DHT22;14887;51.252;7.470;2023-01-19T08:29:34;-0.50;99.90
27439;DHT22;14887;51.252;7.470;2023-01-19T08:31:59;-0.50;99.90
27439;DHT22;14887;51.252;7.470;2023-01-19T08:34:27;-0.50;99.90
27439;DHT22;14887;51.252;7.470;2023-01-19T08:36:55;-0.50;99.90
27439;DHT22;14887;51.252;7.470;2023-01-19T08:39:21;-0.50;99.90
27439;DHT22;14887;51.252;7.470;2023-01-19T08:41:48;-0.40;99.90
27439;DHT22;14887;51.252;7.470;2023-01-19T08:44:14;-0.50;99.90
27439;DHT22;14887;51.252;7.470;2023-01-19T08:46:40;-0.50;99.90
27439;DHT22;14887;51.252;7.470;2023-01-19T08:49:06;-0.50;99.90
27439;DHT22;14887;51.252;7.470;2023-01-19T08:51:32;-0.50;99.90
27439;DHT22;14887;51.252;7.470;2023-01-19T08:53:57;-0.50;99.90
27439;DHT22;14887;51.252;7.470;2023-01-19T08:56:23;-0.50;99.90
27439;DHT22;14887;51.252;7.470;2023-01-19T08:58:51;-0.40;99.90
27439;DHT22;14887;51.252;7.470;2023-01-19T09:01:17;-0.50;99.90
27439;DHT22;14887;51.252;7.470;2023-01-19T09:03:45;-0.50;99.90
27439;DHT22;14887;51.252;7.470;2023-01-19T09:06:12;-0.50;99.90
27439;DHT22;14887;51.252;7.470;2023-01-19T09:08:39;-0.50;99.90
27439;DHT22;14887;51.252;7.470;2023-01-19T09:11:08;-0.40;99.90
27439;DHT22;14887;51.252;7.470;2023-01-19T09:13:35;-0.40;99.90
27439;DHT22;14887;51.252;7.470;2023-01-19T09:16:02;-0.40;99.90
27439;DHT22;14887;51.252;7.470;2023-01-19T09:18:28;-0.40;99.90
27439;DHT22;14887;51.252;7.470;2023-01-19T09:20:56;-0.40;99.90
27439;DHT22;14887;51.252;7.470;2023-01-19T09:23:21;-0.40;99.90
27439;DHT22;14887;51.252;7.470;2023-01-19T09:25:48;-0.40;99.90
27439;DHT22;14887;51.252;7.470;2023-01-19T09:28:15;-0.30;99.90
27439;DHT22;14887;51.252;7.470;2023-01-19T09:30:42;-0.30;99.90
27439;DHT22;14887;51.252;7.470;2023-01-19T09:33:10;-0.20;99.90
27439;DHT22;14887;51.252;7.470;2023-01-19T09:35:37;-0.20;99.90
27439;DHT22;14887;51.252;7.470;2023-01-19T09:38:04;-0.20;99.90
27439;DHT22;14887;51.252;7.470;2023-01-19T09:40:31;-0.20;99.90
27439;DHT22;14887;51.252;7.470;2023-01-19T09:45:56;-0.10;99.90
27439;DHT22;14887;51.252;7.470;2023-01-19T09:48:48;-0.10;99.90
27439;DHT22;14887;51.252;7.470;2023-01-19T09:51:25;0.00;99.90
27439;DHT22;14887;51.252;7.470;2023-01-19T09:56:21;0.00;99.90
27439;DHT22;14887;51.252;7.470;2023-01-19T09:58:48;0.00;99.90
27439;DHT22;14887;51.252;7.470;2023-01-19T10:03:50;0.10;99.90
27439;DHT22;14887;51.252;7.470;2023-01-19T10:06:20;0.10;99.90
27439;DHT22;14887;51.252;7.470;2023-01-19T10:09:22;0.10;99.90
27439;DHT22;14887;51.252;7.470;2023-01-19T10:11:56;0.10;99.90
27439;DHT22;14887;51.252;7.470;2023-01-19T10:14:53;0.00;99.90
27439;DHT22;14887;51.252;7.470;2023-01-19T10:20:03;0.10;99.90
27439;DHT22;14887;51.252;7.470;2023-01-19T10:22:36;0.10;99.90
27439;DHT22;14887;51.252;7.470;2023-01-19T10:25:09;0.20;99.90
27439;DHT22;14887;51.252;7.470;2023-01-19T10:27:38;0.20;99.90
27439;DHT22;14887;51.252;7.470;2023-01-19T10:30:06;0.10;99.90
27439;DHT22;14887;51.252;7.470;2023-01-19T10:32:34;0.10;99.90
27439;DHT22;14887;51.252;7.470;2023-01-19T10:35:03;0.10;99.90
27439;DHT22;14887;51.252;7.470;2023-01-19T10:37:38;0.20;99.90
27439;DHT22;14887;51.252;7.470;2023-01-19T10:42:36;0.30;99.90
27439;DHT22;14887;51.252;7.470;2023-01-19T10:45:03;0.40;99.90
27439;DHT22;14887;51.252;7.470;2023-01-19T10:47:39;0.30;99.90
27439;DHT22;14887;51.252;7.470;2023-01-19T10:50:27;0.20;99.90
27439;DHT22;14887;51.252;7.470;2023-01-19T10:52:55;0.20;99.90
27439;DHT22;14887;51.252;7.470;2023-01-19T10:55:30;0.20;99.90
27439;DHT22;14887;51.252;7.470;2023-01-19T10:57:58;0.20;99.90
27439;DHT22;14887;51.252;7.470;2023-01-19T11:00:34;0.30;99.90
27439;DHT22;14887;51.252;7.470;2023-01-19T11:03:02;0.20;99.90
27439;DHT22;14887;51.252;7.470;2023-01-19T11:05:30;0.20;99.90
27439;DHT22;14887;51.252;7.470;2023-01-19T11:07:56;0.20;99.90
27439;DHT22;14887;51.252;7.470;2023-01-19T11:10:29;0.20;99.90
27439;DHT22;14887;51.252;7.470;2023-01-19T11:12:55;0.30;99.90
27439;DHT22;14887;51.252;7.470;2023-01-19T11:15:24;0.40;99.90
27439;DHT22;14887;51.252;7.470;2023-01-19T11:17:52;0.40;99.90
27439;DHT22;14887;51.252;7.470;2023-01-19T11:20:32;0.40;99.90
27439;DHT22;14887;51.252;7.470;2023-01-19T11:23:16;0.40;99.90
27439;DHT22;14887;51.252;7.470;2023-01-19T11:25:45;0.50;99.90
27439;DHT22;14887;51.252;7.470;2023-01-19T11:28:41;0.50;99.90
27439;DHT22;14887;51.252;7.470;2023-01-19T11:31:15;0.50;99.90
27439;DHT22;14887;51.252;7.470;2023-01-19T11:33:53;0.50;99.90
27439;DHT22;14887;51.252;7.470;2023-01-19T11:36:20;0.60;99.90
27439;DHT22;14887;51.252;7.470;2023-01-19T11:38:51;0.60;99.90
27439;DHT22;14887;51.252;7.470;2023-01-19T11:44:08;0.50;99.90
27439;DHT22;14887;51.252;7.470;2023-01-19T11:46:37;0.40;99.90
27439;DHT22;14887;51.252;7.470;2023-01-19T11:49:11;0.40;99.90
27439;DHT22;14887;51.252;7.470;2023-01-19T11:52:03;0.40;99.90
27439;DHT22;14887;51.252;7.470;2023-01-19T11:54:35;0.40;99.90
27439;DHT22;14887;51.252;7.470;2023-01-19T11:57:11;0.50;99.90
27439;DHT22;14887;51.252;7.470;2023-01-19T11:59:37;0.50;99.90
27439;DHT22;14887;51.252;7.470;2023-01-19T12:02:09;0.50;99.90
27439;DHT22;14887;51.252;7.470;2023-01-19T12:04:38;0.50;99.90
27439;DHT22;14887;51.252;7.470;2023-01-19T12:07:06;0.50;99.90
27439;DHT22;14887;51.252;7.470;2023-01-19T12:09:50;0.60;99.90
27439;DHT22;14887;51.252;7.470;2023-01-19T12:12:30;0.60;99.90
27439;DHT22;14887;51.252;7.470;2023-01-19T12:15:01;0.60;99.90
27439;DHT22;14887;51.252;7.470;2023-01-19T12:17:34;0.60;99.90
27439;DHT22;14887;51.252;7.470;2023-01-19T12:22:51;0.70;99.90
27439;DHT22;14887;51.252;7.470;2023-01-19T12:25:22;0.70;99.90
27439;DHT22;14887;51.252;7.470;2023-01-19T12:27:49;0.60;99.90
27439;DHT22;14887;51.252;7.470;2023-01-19T12:30:19;0.70;99.90
27439;DHT22;14887;51.252;7.470;2023-01-19T12:32:45;0.80;99.90
27439;DHT22;14887;51.252;7.470;2023-01-19T12:38:44;0.70;99.90
27439;DHT22;14887;51.252;7.470;2023-01-19T12:41:35;0.80;99.90
27439;DHT22;14887;51.252;7.470;2023-01-19T12:54:40;0.70;99.90
27439;DHT22;14887;51.252;7.470;2023-01-19T12:57:24;0.80;99.90
27439;DHT22;14887;51.252;7.470;2023-01-19T13:02:46;0.90;99.90
27439;DHT22;14887;51.252;7.470;2023-01-19T13:05:46;0.90;99.90
27439;DHT22;14887;51.252;7.470;2023-01-19T13:19:12;0.60;99.90
27439;DHT22;14887;51.252;7.470;2023-01-19T13:24:03;0.50;99.90
27439;DHT22;14887;51.252;7.470;2023-01-19T13:26:42;0.60;99.90
27439;DHT22;14887;51.252;7.470;2023-01-19T13:31:48;0.40;99.90
27439;DHT22;14887;51.252;7.470;2023-01-19T13:34:20;0.40;99.90
27439;DHT22;14887;51.252;7.470;2023-01-19T13:36:50;0.40;99.90
27439;DHT22;14887;51.252;7.470;2023-01-19T13:39:23;0.40;99.90
27439;DHT22;14887;51.252;7.470;2023-01-19T13:41:53;0.30;99.90
27439;DHT22;14887;51.252;7.470;2023-01-19T13:44:39;0.40;99.90
27439;DHT22;14887;51.252;7.470;2023-01-19T13:47:07;0.40;99.90
27439;DHT22;14887;51.252;7.470;2023-01-19T13:49:39;0.40;99.90
27439;DHT22;14887;51.252;7.470;2023-01-19T13:52:13;0.60;99.90
27439;DHT22;14887;51.252;7.470;2023-01-19T13:54:59;0.70;99.90
27439;DHT22;14887;51.252;7.470;2023-01-19T13:57:26;0.70;99.90
27439;DHT22;14887;51.252;7.470;2023-01-19T14:07:46;0.50;99.90
27439;DHT22;14887;51.252;7.470;2023-01-19T14:10:14;0.60;99.90
27439;DHT22;14887;51.252;7.470;2023-01-19T14:12:41;0.60;99.90
27439;DHT22;14887;51.252;7.470;2023-01-19T14:15:13;0.60;99.90
27439;DHT22;14887;51.252;7.470;2023-01-19T14:17:40;0.60;99.90
27439;DHT22;14887;51.252;7.470;2023-01-19T14:20:26;0.50;99.90
27439;DHT22;14887;51.252;7.470;2023-01-19T14:22:51;0.50;99.90
27439;DHT22;14887;51.252;7.470;2023-01-19T14:25:31;0.50;99.90
27439;DHT22;14887;51.252;7.470;2023-01-19T14:28:28;0.60;99.90
27439;DHT22;14887;51.252;7.470;2023-01-19T14:30:55;0.60;99.90
27439;DHT22;14887;51.252;7.470;2023-01-19T14:33:41;0.50;99.90
27439;DHT22;14887;51.252;7.470;2023-01-19T14:36:32;0.50;99.90
27439;DHT22;14887;51.252;7.470;2023-01-19T14:38:59;0.50;99.90
27439;DHT22;14887;51.252;7.470;2023-01-19T14:41:45;0.50;99.90
27439;DHT22;14887;51.252;7.470;2023-01-19T14:44:27;0.40;99.90
27439;DHT22;14887;51.252;7.470;2023-01-19T14:46:53;0.40;99.90
27439;DHT22;14887;51.252;7.470;2023-01-19T14:49:30;0.40;99.90
27439;DHT22;14887;51.252;7.470;2023-01-19T14:51:57;0.40;99.90
27439;DHT22;14887;51.252;7.470;2023-01-19T14:54:33;0.40;99.90
27439;DHT22;14887;51.252;7.470;2023-01-19T14:56:59;0.40;99.90
27439;DHT22;14887;51.252;7.470;2023-01-19T14:59:24;0.40;99.90
27439;DHT22;14887;51.252;7.470;2023-01-19T15:01:50;0.40;99.90
27439;DHT22;14887;51.252;7.470;2023-01-19T15:04:16;0.40;99.90
27439;DHT22;14887;51.252;7.470;2023-01-19T15:06:41;0.40;99.90
27439;DHT22;14887;51.252;7.470;2023-01-19T15:09:12;0.40;99.90
27439;DHT22;14887;51.252;7.470;2023-01-19T15:11:38;0.40;99.90
27439;DHT22;14887;51.252;7.470;2023-01-19T15:14:05;0.40;99.90
27439;DHT22;14887;51.252;7.470;2023-01-19T15:16:31;0.40;99.90
27439;DHT22;14887;51.252;7.470;2023-01-19T15:18:58;0.40;99.90
27439;DHT22;14887;51.252;7.470;2023-01-19T15:21:24;0.30;99.90
27439;DHT22;14887;51.252;7.470;2023-01-19T15:23:53;0.40;99.90
27439;DHT22;14887;51.252;7.470;2023-01-19T15:26:22;0.30;99.90
27439;DHT22;14887;51.252;7.470;2023-01-19T15:28:48;0.40;99.90
27439;DHT22;14887;51.252;7.470;2023-01-19T15:31:18;0.30;99.90
27439;DHT22;14887;51.252;7.470;2023-01-19T15:33:44;0.40;99.90
27439;DHT22;14887;51.252;7.470;2023-01-19T15:36:18;0.30;99.90
27439;DHT22;14887;51.252;7.470;2023-01-19T15:38:45;0.30;99.90
27439;DHT22;14887;51.252;7.470;2023-01-19T15:41:20;0.30;99.90
27439;DHT22;14887;51.252;7.470;2023-01-19T15:43:46;0.20;99.90
27439;DHT22;14887;51.252;7.470;2023-01-19T15:46:13;0.30;99.90
27439;DHT22;14887;51.252;7.470;2023-01-19T15:48:40;0.20;99.90
27439;DHT22;14887;51.252;7.470;2023-01-19T15:51:11;0.20;99.90
27439;DHT22;14887;51.252;7.470;2023-01-19T15:53:37;0.20;99.90
27439;DHT22;14887;51.252;7.470;2023-01-19T15:56:02;0.20;99.90
27439;DHT22;14887;51.252;7.470;2023-01-19T15:58:28;0.20;99.90
27439;DHT22;14887;51.252;7.470;2023-01-19T16:00:55;0.20;99.90
27439;DHT22;14887;51.252;7.470;2023-01-19T16:03:21;0.20;99.90
27439;DHT22;14887;51.252;7.470;2023-01-19T16:05:47;0.20;99.90
27439;DHT22;14887;51.252;7.470;2023-01-19T16:08:13;0.10;99.90
27439;DHT22;14887;51.252;7.470;2023-01-19T16:10:39;0.10;99.90
27439;DHT22;14887;51.252;7.470;2023-01-19T16:13:05;0.10;99.90
27439;DHT22;14887;51.252;7.470;2023-01-19T16:15:33;0.10;99.90
27439;DHT22;14887;51.252;7.470;2023-01-19T16:17:59;0.10;99.90
27439;DHT22;14887;51.252;7.470;2023-01-19T16:20:24;0.10;99.90
27439;DHT22;14887;51.252;7.470;2023-01-19T16:22:50;0.10;99.90
27439;DHT22;14887;51.252;7.470;2023-01-19T16:25:16;0.10;99.90
27439;DHT22;14887;51.252;7.470;2023-01-19T16:27:41;0.00;99.90
27439;DHT22;14887;51.252;7.470;2023-01-19T16:30:09;0.00;99.90
27439;DHT22;14887;51.252;7.470;2023-01-19T16:32:35;0.00;99.90
27439;DHT22;14887;51.252;7.470;2023-01-19T16:35:01;0.00;99.90
27439;DHT22;14887;51.252;7.470;2023-01-19T16:37:27;0.00;99.90
27439;DHT22;14887;51.252;7.470;2023-01-19T16:39:52;0.00;99.90
27439;DHT22;14887;51.252;7.470;2023-01-19T16:42:18;0.00;99.90
27439;DHT22;14887;51.252;7.470;2023-01-19T16:44:44;0.00;99.90
27439;DHT22;14887;51.252;7.470;2023-01-19T16:47:09;0.00;99.90
27439;DHT22;14887;51.252;7.470;2023-01-19T16:49:35;-0.10;99.90
27439;DHT22;14887;51.252;7.470;2023-01-19T16:52:00;0.00;99.90
27439;DHT22;14887;51.252;7.470;2023-01-19T16:54:27;0.00;99.90
27439;DHT22;14887;51.252;7.470;2023-01-19T16:56:56;0.00;99.90
27439;DHT22;14887;51.252;7.470;2023-01-19T16:59:22;0.00;99.90
27439;DHT22;14887;51.252;7.470;2023-01-19T17:01:49;0.00;99.90
27439;DHT22;14887;51.252;7.470;2023-01-19T17:04:15;0.00;99.90
27439;DHT22;14887;51.252;7.470;2023-01-19T17:06:41;-0.10;99.90